CheckWX is a tool to help pilots better visualize weather data.  It is not intended as a substitute for an official pre-flight weather briefing.

12:25:07 UTC

EGCN METAR
Robin Hood Doncaster Sheffield Airport
Doncaster, United Kingdom
Current

35 mins ago

EGCN 181150Z 20015KT 9999 SCT023 BKN030 11/07 Q1011
Observed
Feb-18 @ 11:50 UTC
Wind
  • 200° at 15 KTS
Visibility
10,000+ meters
Flight Rules
MVFR
Cloud Levels
  • Scattered at 2,300' AGL
  • Broken at 3,000' AGL
Temperature
11°C / 52°F
Dewpoint
C / 45°F
Humidity
77%
Altimeter
29.85" Hg
Pressure
1010.92 hPa
Previous

1 hour ago

EGCN 181120Z 21017KT 9999 SCT019 BKN024 11/06 Q1011
Observed
Feb-18 @ 11:20 UTC
Wind
  • 210° at 17 KTS
Visibility
10,000+ meters
Flight Rules
MVFR
Cloud Levels
  • Scattered at 1,900' AGL
  • Broken at 2,400' AGL
Temperature
11°C / 52°F
Dewpoint
C / 43°F
Humidity
72%
Altimeter
29.85" Hg
Pressure
1010.92 hPa
Previous

2 hours ago

EGCN 181050Z 20017KT 9999 SCT016 11/07 Q1011
Observed
Feb-18 @ 10:50 UTC
Wind
  • 200° at 17 KTS
Visibility
10,000+ meters
Flight Rules
VFR
Cloud Levels
  • Scattered at 1,600' AGL
Temperature
11°C / 52°F
Dewpoint
C / 45°F
Humidity
77%
Altimeter
29.85" Hg
Pressure
1010.92 hPa